sensor_id;sensor_type;location;lat;lon;timestamp;P1;durP1;ratioP1;P2;durP2;ratioP2
50884;SDS011;36865;-33.406;-70.534;2022-07-23T00:02:16;47.95;;;27.00;;
50884;SDS011;36865;-33.406;-70.534;2022-07-23T00:04:42;43.20;;;25.40;;
50884;SDS011;36865;-33.406;-70.534;2022-07-23T00:07:08;49.63;;;28.27;;
50884;SDS011;36865;-33.406;-70.534;2022-07-23T00:09:35;45.45;;;25.58;;
50884;SDS011;36865;-33.406;-70.534;2022-07-23T00:12:02;37.38;;;21.42;;
50884;SDS011;36865;-33.406;-70.534;2022-07-23T00:14:28;35.17;;;20.02;;
50884;SDS011;36865;-33.406;-70.534;2022-07-23T00:16:55;32.50;;;18.02;;
50884;SDS011;36865;-33.406;-70.534;2022-07-23T00:19:21;27.90;;;15.55;;
50884;SDS011;36865;-33.406;-70.534;2022-07-23T00:21:48;23.75;;;13.23;;
50884;SDS011;36865;-33.406;-70.534;2022-07-23T00:24:14;26.33;;;13.73;;
50884;SDS011;36865;-33.406;-70.534;2022-07-23T00:26:41;25.08;;;13.50;;
50884;SDS011;36865;-33.406;-70.534;2022-07-23T00:29:07;26.13;;;13.43;;
50884;SDS011;36865;-33.406;-70.534;2022-07-23T00:31:34;25.17;;;13.52;;
50884;SDS011;36865;-33.406;-70.534;2022-07-23T00:34:00;28.55;;;15.38;;
50884;SDS011;36865;-33.406;-70.534;2022-07-23T00:36:27;27.15;;;14.73;;
50884;SDS011;36865;-33.406;-70.534;2022-07-23T00:38:54;26.88;;;14.50;;
50884;SDS011;36865;-33.406;-70.534;2022-07-23T00:41:21;24.63;;;14.07;;
50884;SDS011;36865;-33.406;-70.534;2022-07-23T00:43:47;32.45;;;17.65;;
50884;SDS011;36865;-33.406;-70.534;2022-07-23T00:46:18;45.92;;;24.20;;
50884;SDS011;36865;-33.406;-70.534;2022-07-23T00:48:45;51.83;;;28.25;;
50884;SDS011;36865;-33.406;-70.534;2022-07-23T00:51:12;55.78;;;30.00;;
50884;SDS011;36865;-33.406;-70.534;2022-07-23T00:53:40;46.67;;;26.05;;
50884;SDS011;36865;-33.406;-70.534;2022-07-23T00:56:07;54.20;;;29.20;;
50884;SDS011;36865;-33.406;-70.534;2022-07-23T00:58:35;55.08;;;30.58;;
50884;SDS011;36865;-33.406;-70.534;2022-07-23T01:01:02;60.42;;;33.03;;
50884;SDS011;36865;-33.406;-70.534;2022-07-23T01:03:28;52.67;;;29.50;;
50884;SDS011;36865;-33.406;-70.534;2022-07-23T01:05:55;50.67;;;26.98;;
50884;SDS011;36865;-33.406;-70.534;2022-07-23T01:08:22;41.83;;;22.23;;
50884;SDS011;36865;-33.406;-70.534;2022-07-23T01:10:49;41.38;;;23.42;;
50884;SDS011;36865;-33.406;-70.534;2022-07-23T01:13:16;40.35;;;22.30;;
50884;SDS011;36865;-33.406;-70.534;2022-07-23T01:15:43;35.70;;;19.10;;
50884;SDS011;36865;-33.406;-70.534;2022-07-23T01:18:10;40.00;;;22.48;;
50884;SDS011;36865;-33.406;-70.534;2022-07-23T01:20:38;50.20;;;27.48;;
50884;SDS011;36865;-33.406;-70.534;2022-07-23T01:23:04;43.60;;;24.35;;
50884;SDS011;36865;-33.406;-70.534;2022-07-23T01:25:31;41.53;;;24.60;;
50884;SDS011;36865;-33.406;-70.534;2022-07-23T01:27:58;47.10;;;25.92;;
50884;SDS011;36865;-33.406;-70.534;2022-07-23T01:30:24;49.13;;;28.38;;
50884;SDS011;36865;-33.406;-70.534;2022-07-23T01:32:51;44.70;;;24.83;;
50884;SDS011;36865;-33.406;-70.534;2022-07-23T01:35:17;36.92;;;21.15;;
50884;SDS011;36865;-33.406;-70.534;2022-07-23T01:37:44;36.78;;;21.25;;
50884;SDS011;36865;-33.406;-70.534;2022-07-23T01:40:10;44.28;;;24.42;;
50884;SDS011;36865;-33.406;-70.534;2022-07-23T01:42:37;38.58;;;22.40;;
50884;SDS011;36865;-33.406;-70.534;2022-07-23T01:45:04;49.38;;;27.73;;
50884;SDS011;36865;-33.406;-70.534;2022-07-23T01:47:31;48.97;;;27.92;;
50884;SDS011;36865;-33.406;-70.534;2022-07-23T01:49:57;49.38;;;28.13;;
50884;SDS011;36865;-33.406;-70.534;2022-07-23T01:52:24;47.05;;;27.80;;
50884;SDS011;36865;-33.406;-70.534;2022-07-23T01:54:50;50.97;;;28.55;;
50884;SDS011;36865;-33.406;-70.534;2022-07-23T01:57:17;45.40;;;27.13;;
50884;SDS011;36865;-33.406;-70.534;2022-07-23T01:59:43;40.05;;;23.95;;
50884;SDS011;36865;-33.406;-70.534;2022-07-23T02:02:10;38.58;;;21.60;;
50884;SDS011;36865;-33.406;-70.534;2022-07-23T02:04:36;40.65;;;24.20;;
50884;SDS011;36865;-33.406;-70.534;2022-07-23T02:07:03;55.42;;;30.75;;
50884;SDS011;36865;-33.406;-70.534;2022-07-23T02:09:30;62.00;;;33.58;;
50884;SDS011;36865;-33.406;-70.534;2022-07-23T02:11:57;59.70;;;34.22;;
50884;SDS011;36865;-33.406;-70.534;2022-07-23T02:14:24;64.25;;;35.08;;
50884;SDS011;36865;-33.406;-70.534;2022-07-23T02:16:51;59.00;;;32.85;;
50884;SDS011;36865;-33.406;-70.534;2022-07-23T02:19:18;54.17;;;30.48;;
50884;SDS011;36865;-33.406;-70.534;2022-07-23T02:21:44;58.47;;;33.80;;
50884;SDS011;36865;-33.406;-70.534;2022-07-23T02:24:11;62.55;;;34.72;;
50884;SDS011;36865;-33.406;-70.534;2022-07-23T02:26:38;56.75;;;32.33;;
50884;SDS011;36865;-33.406;-70.534;2022-07-23T02:29:04;59.97;;;33.25;;
50884;SDS011;36865;-33.406;-70.534;2022-07-23T02:31:31;65.13;;;35.85;;
50884;SDS011;36865;-33.406;-70.534;2022-07-23T02:33:58;56.03;;;31.98;;
50884;SDS011;36865;-33.406;-70.534;2022-07-23T02:36:24;62.33;;;32.83;;
50884;SDS011;36865;-33.406;-70.534;2022-07-23T02:38:51;64.95;;;36.17;;
50884;SDS011;36865;-33.406;-70.534;2022-07-23T02:41:18;59.92;;;32.83;;
50884;SDS011;36865;-33.406;-70.534;2022-07-23T02:43:44;60.25;;;32.10;;
50884;SDS011;36865;-33.406;-70.534;2022-07-23T02:46:11;51.40;;;28.88;;
50884;SDS011;36865;-33.406;-70.534;2022-07-23T02:48:37;52.08;;;29.40;;
50884;SDS011;36865;-33.406;-70.534;2022-07-23T02:51:03;50.60;;;26.67;;
50884;SDS011;36865;-33.406;-70.534;2022-07-23T02:53:30;46.80;;;26.50;;
50884;SDS011;36865;-33.406;-70.534;2022-07-23T02:55:57;41.55;;;23.60;;
50884;SDS011;36865;-33.406;-70.534;2022-07-23T02:58:23;38.53;;;20.90;;
50884;SDS011;36865;-33.406;-70.534;2022-07-23T03:00:52;36.78;;;19.98;;
50884;SDS011;36865;-33.406;-70.534;2022-07-23T03:03:19;36.92;;;19.75;;
50884;SDS011;36865;-33.406;-70.534;2022-07-23T03:05:45;36.38;;;18.85;;
50884;SDS011;36865;-33.406;-70.534;2022-07-23T03:08:12;36.72;;;18.75;;
50884;SDS011;36865;-33.406;-70.534;2022-07-23T03:10:39;33.53;;;17.48;;
50884;SDS011;36865;-33.406;-70.534;2022-07-23T03:13:05;34.05;;;18.45;;
50884;SDS011;36865;-33.406;-70.534;2022-07-23T03:15:32;32.20;;;16.63;;
50884;SDS011;36865;-33.406;-70.534;2022-07-23T03:17:58;28.55;;;15.57;;
50884;SDS011;36865;-33.406;-70.534;2022-07-23T03:20:24;24.73;;;13.45;;
50884;SDS011;36865;-33.406;-70.534;2022-07-23T03:22:51;27.65;;;14.15;;
50884;SDS011;36865;-33.406;-70.534;2022-07-23T03:25:17;26.67;;;13.85;;
50884;SDS011;36865;-33.406;-70.534;2022-07-23T03:27:44;27.65;;;14.43;;
50884;SDS011;36865;-33.406;-70.534;2022-07-23T03:30:11;23.30;;;12.02;;
50884;SDS011;36865;-33.406;-70.534;2022-07-23T03:32:38;20.92;;;11.05;;
50884;SDS011;36865;-33.406;-70.534;2022-07-23T03:35:04;19.75;;;9.75;;
50884;SDS011;36865;-33.406;-70.534;2022-07-23T03:37:31;22.38;;;10.90;;
50884;SDS011;36865;-33.406;-70.534;2022-07-23T03:39:58;20.48;;;10.25;;
50884;SDS011;36865;-33.406;-70.534;2022-07-23T03:42:24;18.67;;;9.00;;
50884;SDS011;36865;-33.406;-70.534;2022-07-23T03:44:51;20.83;;;9.77;;
50884;SDS011;36865;-33.406;-70.534;2022-07-23T03:47:17;20.88;;;9.55;;
50884;SDS011;36865;-33.406;-70.534;2022-07-23T03:49:47;20.90;;;10.75;;
50884;SDS011;36865;-33.406;-70.534;2022-07-23T03:52:14;18.63;;;9.80;;
50884;SDS011;36865;-33.406;-70.534;2022-07-23T03:54:41;23.98;;;10.60;;
50884;SDS011;36865;-33.406;-70.534;2022-07-23T03:57:07;24.02;;;11.20;;
50884;SDS011;36865;-33.406;-70.534;2022-07-23T03:59:34;21.00;;;9.70;;
50884;SDS011;36865;-33.406;-70.534;2022-07-23T04:02:00;18.80;;;9.00;;
50884;SDS011;36865;-33.406;-70.534;2022-07-23T04:04:26;21.38;;;10.05;;
50884;SDS011;36865;-33.406;-70.534;2022-07-23T04:06:53;21.02;;;10.07;;
50884;SDS011;36865;-33.406;-70.534;2022-07-23T04:09:19;22.38;;;10.70;;
50884;SDS011;36865;-33.406;-70.534;2022-07-23T04:11:46;27.98;;;13.77;;
50884;SDS011;36865;-33.406;-70.534;2022-07-23T04:14:12;25.23;;;13.25;;
50884;SDS011;36865;-33.406;-70.534;2022-07-23T04:16:39;22.98;;;11.25;;
50884;SDS011;36865;-33.406;-70.534;2022-07-23T04:19:05;21.63;;;10.40;;
50884;SDS011;36865;-33.406;-70.534;2022-07-23T04:21:32;19.05;;;9.43;;
50884;SDS011;36865;-33.406;-70.534;2022-07-23T04:23:58;21.63;;;10.90;;
50884;SDS011;36865;-33.406;-70.534;2022-07-23T04:26:25;21.58;;;10.75;;
50884;SDS011;36865;-33.406;-70.534;2022-07-23T04:28:51;19.60;;;9.75;;
50884;SDS011;36865;-33.406;-70.534;2022-07-23T04:31:18;23.13;;;11.68;;
50884;SDS011;36865;-33.406;-70.534;2022-07-23T04:33:44;22.40;;;11.30;;
50884;SDS011;36865;-33.406;-70.534;2022-07-23T04:36:11;22.50;;;11.15;;
50884;SDS011;36865;-33.406;-70.534;2022-07-23T04:38:37;25.38;;;11.63;;
50884;SDS011;36865;-33.406;-70.534;2022-07-23T04:41:04;21.40;;;10.68;;
50884;SDS011;36865;-33.406;-70.534;2022-07-23T04:43:30;19.70;;;9.65;;
50884;SDS011;36865;-33.406;-70.534;2022-07-23T04:45:57;19.85;;;9.88;;
50884;SDS011;36865;-33.406;-70.534;2022-07-23T04:48:24;18.58;;;9.38;;
50884;SDS011;36865;-33.406;-70.534;2022-07-23T04:50:50;19.33;;;9.73;;
50884;SDS011;36865;-33.406;-70.534;2022-07-23T04:53:17;20.67;;;10.57;;
50884;SDS011;36865;-33.406;-70.534;2022-07-23T04:55:45;18.38;;;9.63;;
50884;SDS011;36865;-33.406;-70.534;2022-07-23T04:58:11;19.52;;;10.10;;
50884;SDS011;36865;-33.406;-70.534;2022-07-23T05:00:38;19.77;;;9.85;;
50884;SDS011;36865;-33.406;-70.534;2022-07-23T05:03:04;18.00;;;8.70;;
50884;SDS011;36865;-33.406;-70.534;2022-07-23T05:05:31;17.25;;;8.27;;
50884;SDS011;36865;-33.406;-70.534;2022-07-23T05:07:57;16.27;;;8.10;;
50884;SDS011;36865;-33.406;-70.534;2022-07-23T05:10:24;15.45;;;7.43;;
50884;SDS011;36865;-33.406;-70.534;2022-07-23T05:12:50;16.52;;;7.75;;
50884;SDS011;36865;-33.406;-70.534;2022-07-23T05:15:17;15.68;;;7.38;;
50884;SDS011;36865;-33.406;-70.534;2022-07-23T05:17:43;15.88;;;7.88;;
50884;SDS011;36865;-33.406;-70.534;2022-07-23T05:20:10;15.35;;;7.40;;
50884;SDS011;36865;-33.406;-70.534;2022-07-23T05:22:37;14.55;;;7.05;;
50884;SDS011;36865;-33.406;-70.534;2022-07-23T05:25:03;14.70;;;7.25;;
50884;SDS011;36865;-33.406;-70.534;2022-07-23T05:27:30;14.80;;;7.18;;
50884;SDS011;36865;-33.406;-70.534;2022-07-23T05:29:57;15.00;;;7.53;;
50884;SDS011;36865;-33.406;-70.534;2022-07-23T05:32:23;17.23;;;8.40;;
50884;SDS011;36865;-33.406;-70.534;2022-07-23T05:34:50;17.40;;;8.60;;
50884;SDS011;36865;-33.406;-70.534;2022-07-23T05:37:16;19.08;;;9.88;;
50884;SDS011;36865;-33.406;-70.534;2022-07-23T05:39:43;19.95;;;10.20;;
50884;SDS011;36865;-33.406;-70.534;2022-07-23T05:42:10;18.38;;;9.40;;
50884;SDS011;36865;-33.406;-70.534;2022-07-23T05:44:37;17.85;;;9.18;;
50884;SDS011;36865;-33.406;-70.534;2022-07-23T05:47:03;18.17;;;9.63;;
50884;SDS011;36865;-33.406;-70.534;2022-07-23T05:49:30;19.70;;;11.05;;
50884;SDS011;36865;-33.406;-70.534;2022-07-23T05:51:56;22.02;;;11.73;;
50884;SDS011;36865;-33.406;-70.534;2022-07-23T05:54:24;23.17;;;12.77;;
50884;SDS011;36865;-33.406;-70.534;2022-07-23T05:56:50;39.55;;;22.70;;
50884;SDS011;36865;-33.406;-70.534;2022-07-23T05:59:17;38.80;;;22.77;;
50884;SDS011;36865;-33.406;-70.534;2022-07-23T06:01:44;38.67;;;22.65;;
50884;SDS011;36865;-33.406;-70.534;2022-07-23T06:04:10;30.08;;;16.88;;
50884;SDS011;36865;-33.406;-70.534;2022-07-23T06:06:37;29.00;;;16.27;;
50884;SDS011;36865;-33.406;-70.534;2022-07-23T06:09:03;30.70;;;17.35;;
50884;SDS011;36865;-33.406;-70.534;2022-07-23T06:11:30;26.45;;;14.88;;
50884;SDS011;36865;-33.406;-70.534;2022-07-23T06:13:56;28.33;;;15.93;;
50884;SDS011;36865;-33.406;-70.534;2022-07-23T06:16:23;28.75;;;16.35;;
50884;SDS011;36865;-33.406;-70.534;2022-07-23T06:18:50;31.52;;;17.35;;
50884;SDS011;36865;-33.406;-70.534;2022-07-23T06:21:16;32.40;;;17.13;;
50884;SDS011;36865;-33.406;-70.534;2022-07-23T06:23:43;29.40;;;16.52;;
50884;SDS011;36865;-33.406;-70.534;2022-07-23T06:26:09;32.63;;;18.52;;
50884;SDS011;36865;-33.406;-70.534;2022-07-23T06:28:36;33.63;;;19.20;;
50884;SDS011;36865;-33.406;-70.534;2022-07-23T06:31:02;32.63;;;19.00;;
50884;SDS011;36865;-33.406;-70.534;2022-07-23T06:33:29;30.77;;;18.08;;
50884;SDS011;36865;-33.406;-70.534;2022-07-23T06:35:55;33.95;;;18.80;;
50884;SDS011;36865;-33.406;-70.534;2022-07-23T06:38:22;34.95;;;19.25;;
50884;SDS011;36865;-33.406;-70.534;2022-07-23T06:40:49;33.92;;;17.95;;
50884;SDS011;36865;-33.406;-70.534;2022-07-23T06:43:15;27.30;;;15.73;;
50884;SDS011;36865;-33.406;-70.534;2022-07-23T06:45:42;25.38;;;13.95;;
50884;SDS011;36865;-33.406;-70.534;2022-07-23T06:48:08;23.42;;;13.23;;
50884;SDS011;36865;-33.406;-70.534;2022-07-23T06:50:35;23.63;;;12.75;;
50884;SDS011;36865;-33.406;-70.534;2022-07-23T06:53:01;28.30;;;14.77;;
50884;SDS011;36865;-33.406;-70.534;2022-07-23T06:55:28;26.33;;;14.05;;
50884;SDS011;36865;-33.406;-70.534;2022-07-23T06:57:54;24.80;;;13.20;;
50884;SDS011;36865;-33.406;-70.534;2022-07-23T07:00:21;28.55;;;14.57;;
50884;SDS011;36865;-33.406;-70.534;2022-07-23T07:02:48;27.90;;;15.20;;
50884;SDS011;36865;-33.406;-70.534;2022-07-23T07:05:14;30.10;;;15.90;;
50884;SDS011;36865;-33.406;-70.534;2022-07-23T07:07:41;28.90;;;14.65;;
50884;SDS011;36865;-33.406;-70.534;2022-07-23T07:10:07;24.98;;;12.77;;
50884;SDS011;36865;-33.406;-70.534;2022-07-23T07:12:34;21.60;;;11.55;;
50884;SDS011;36865;-33.406;-70.534;2022-07-23T07:15:01;24.05;;;12.57;;
50884;SDS011;36865;-33.406;-70.534;2022-07-23T07:17:27;24.95;;;13.32;;
50884;SDS011;36865;-33.406;-70.534;2022-07-23T07:19:54;27.02;;;13.57;;
50884;SDS011;36865;-33.406;-70.534;2022-07-23T07:22:20;24.02;;;12.23;;
50884;SDS011;36865;-33.406;-70.534;2022-07-23T07:24:47;21.55;;;10.73;;
50884;SDS011;36865;-33.406;-70.534;2022-07-23T07:27:13;18.58;;;9.00;;
50884;SDS011;36865;-33.406;-70.534;2022-07-23T07:29:40;19.67;;;9.68;;
50884;SDS011;36865;-33.406;-70.534;2022-07-23T07:32:06;26.45;;;14.10;;
50884;SDS011;36865;-33.406;-70.534;2022-07-23T07:34:33;22.85;;;12.18;;
50884;SDS011;36865;-33.406;-70.534;2022-07-23T07:36:59;20.70;;;10.40;;
50884;SDS011;36865;-33.406;-70.534;2022-07-23T07:39:26;18.00;;;9.02;;
50884;SDS011;36865;-33.406;-70.534;2022-07-23T07:41:52;17.48;;;8.27;;
50884;SDS011;36865;-33.406;-70.534;2022-07-23T07:44:19;16.10;;;7.63;;
50884;SDS011;36865;-33.406;-70.534;2022-07-23T07:46:45;17.23;;;8.15;;
50884;SDS011;36865;-33.406;-70.534;2022-07-23T07:49:12;16.88;;;8.32;;
50884;SDS011;36865;-33.406;-70.534;2022-07-23T07:51:38;16.80;;;7.72;;
50884;SDS011;36865;-33.406;-70.534;2022-07-23T07:54:05;18.63;;;10.07;;
50884;SDS011;36865;-33.406;-70.534;2022-07-23T07:56:31;19.25;;;9.48;;
50884;SDS011;36865;-33.406;-70.534;2022-07-23T07:58:58;19.70;;;10.45;;
50884;SDS011;36865;-33.406;-70.534;2022-07-23T08:01:26;21.45;;;11.32;;
50884;SDS011;36865;-33.406;-70.534;2022-07-23T08:03:52;19.50;;;10.18;;
50884;SDS011;36865;-33.406;-70.534;2022-07-23T08:06:19;22.80;;;12.07;;
50884;SDS011;36865;-33.406;-70.534;2022-07-23T08:08:45;20.75;;;11.40;;
50884;SDS011;36865;-33.406;-70.534;2022-07-23T08:11:12;24.92;;;13.38;;
50884;SDS011;36865;-33.406;-70.534;2022-07-23T08:13:39;26.85;;;14.35;;
50884;SDS011;36865;-33.406;-70.534;2022-07-23T08:16:06;24.40;;;13.35;;
50884;SDS011;36865;-33.406;-70.534;2022-07-23T08:18:33;20.50;;;11.30;;
50884;SDS011;36865;-33.406;-70.534;2022-07-23T08:20:59;19.67;;;10.40;;
50884;SDS011;36865;-33.406;-70.534;2022-07-23T08:23:26;16.27;;;8.52;;
50884;SDS011;36865;-33.406;-70.534;2022-07-23T08:25:52;19.90;;;10.40;;
50884;SDS011;36865;-33.406;-70.534;2022-07-23T08:28:19;19.92;;;10.10;;
50884;SDS011;36865;-33.406;-70.534;2022-07-23T08:30:46;17.98;;;9.20;;
50884;SDS011;36865;-33.406;-70.534;2022-07-23T08:33:13;17.30;;;9.00;;
50884;SDS011;36865;-33.406;-70.534;2022-07-23T08:35:42;15.98;;;7.55;;
50884;SDS011;36865;-33.406;-70.534;2022-07-23T08:38:13;15.67;;;7.40;;
50884;SDS011;36865;-33.406;-70.534;2022-07-23T08:40:42;14.75;;;7.15;;
50884;SDS011;36865;-33.406;-70.534;2022-07-23T08:43:16;15.40;;;7.53;;
50884;SDS011;36865;-33.406;-70.534;2022-07-23T08:45:45;13.48;;;6.57;;
50884;SDS011;36865;-33.406;-70.534;2022-07-23T08:48:14;13.95;;;6.90;;
50884;SDS011;36865;-33.406;-70.534;2022-07-23T08:50:45;13.60;;;7.00;;
50884;SDS011;36865;-33.406;-70.534;2022-07-23T08:53:13;13.77;;;6.32;;
50884;SDS011;36865;-33.406;-70.534;2022-07-23T08:55:43;13.25;;;6.57;;
50884;SDS011;36865;-33.406;-70.534;2022-07-23T08:58:10;16.35;;;8.20;;
50884;SDS011;36865;-33.406;-70.534;2022-07-23T09:00:37;18.27;;;9.50;;
50884;SDS011;36865;-33.406;-70.534;2022-07-23T09:03:04;19.98;;;10.95;;
50884;SDS011;36865;-33.406;-70.534;2022-07-23T09:05:30;21.40;;;11.70;;
50884;SDS011;36865;-33.406;-70.534;2022-07-23T09:10:56;19.52;;;10.43;;
50884;SDS011;36865;-33.406;-70.534;2022-07-23T09:16:01;18.75;;;9.95;;
50884;SDS011;36865;-33.406;-70.534;2022-07-23T09:18:51;18.23;;;9.75;;
50884;SDS011;36865;-33.406;-70.534;2022-07-23T09:21:23;16.03;;;8.33;;
50884;SDS011;36865;-33.406;-70.534;2022-07-23T09:23:58;16.88;;;9.10;;
50884;SDS011;36865;-33.406;-70.534;2022-07-23T09:26:35;20.10;;;10.68;;
50884;SDS011;36865;-33.406;-70.534;2022-07-23T09:31:32;18.08;;;8.98;;
50884;SDS011;36865;-33.406;-70.534;2022-07-23T09:34:11;18.10;;;9.80;;
50884;SDS011;36865;-33.406;-70.534;2022-07-23T09:36:39;23.35;;;11.73;;
50884;SDS011;36865;-33.406;-70.534;2022-07-23T09:39:06;21.52;;;11.73;;
50884;SDS011;36865;-33.406;-70.534;2022-07-23T09:41:35;20.02;;;10.13;;
50884;SDS011;36865;-33.406;-70.534;2022-07-23T09:44:09;29.27;;;15.73;;
50884;SDS011;36865;-33.406;-70.534;2022-07-23T09:46:37;27.10;;;14.88;;
50884;SDS011;36865;-33.406;-70.534;2022-07-23T09:49:11;24.05;;;13.13;;
50884;SDS011;36865;-33.406;-70.534;2022-07-23T09:51:45;21.45;;;12.20;;
50884;SDS011;36865;-33.406;-70.534;2022-07-23T09:56:58;20.20;;;10.48;;
50884;SDS011;36865;-33.406;-70.534;2022-07-23T09:59:30;19.30;;;10.00;;
50884;SDS011;36865;-33.406;-70.534;2022-07-23T10:01:59;18.48;;;9.27;;
50884;SDS011;36865;-33.406;-70.534;2022-07-23T10:04:27;17.98;;;9.48;;
50884;SDS011;36865;-33.406;-70.534;2022-07-23T10:06:55;18.77;;;9.65;;
50884;SDS011;36865;-33.406;-70.534;2022-07-23T10:09:24;18.73;;;9.63;;
50884;SDS011;36865;-33.406;-70.534;2022-07-23T10:11:59;18.05;;;9.23;;
50884;SDS011;36865;-33.406;-70.534;2022-07-23T10:14:33;19.55;;;9.77;;
50884;SDS011;36865;-33.406;-70.534;2022-07-23T10:17:01;21.48;;;10.65;;
50884;SDS011;36865;-33.406;-70.534;2022-07-23T10:19:29;21.55;;;11.55;;
50884;SDS011;36865;-33.406;-70.534;2022-07-23T10:21:58;21.98;;;12.02;;
50884;SDS011;36865;-33.406;-70.534;2022-07-23T10:32:49;21.75;;;11.07;;
50884;SDS011;36865;-33.406;-70.534;2022-07-23T10:37:49;21.88;;;10.57;;
50884;SDS011;36865;-33.406;-70.534;2022-07-23T10:40:18;19.17;;;9.48;;
50884;SDS011;36865;-33.406;-70.534;2022-07-23T10:42:51;17.95;;;8.93;;
50884;SDS011;36865;-33.406;-70.534;2022-07-23T10:45:33;20.73;;;9.68;;
50884;SDS011;36865;-33.406;-70.534;2022-07-23T10:48:18;17.65;;;8.60;;
50884;SDS011;36865;-33.406;-70.534;2022-07-23T10:56:17;22.45;;;10.40;;
50884;SDS011;36865;-33.406;-70.534;2022-07-23T10:59:04;18.13;;;8.70;;
50884;SDS011;36865;-33.406;-70.534;2022-07-23T11:04:01;16.25;;;7.30;;
50884;SDS011;36865;-33.406;-70.534;2022-07-23T11:09:38;17.52;;;7.75;;
50884;SDS011;36865;-33.406;-70.534;2022-07-23T11:14:57;18.63;;;8.35;;
50884;SDS011;36865;-33.406;-70.534;2022-07-23T11:17:25;19.70;;;9.20;;
50884;SDS011;36865;-33.406;-70.534;2022-07-23T11:25:11;25.42;;;11.77;;
50884;SDS011;36865;-33.406;-70.534;2022-07-23T11:28:11;24.33;;;11.57;;
50884;SDS011;36865;-33.406;-70.534;2022-07-23T11:30:43;20.40;;;10.00;;
50884;SDS011;36865;-33.406;-70.534;2022-07-23T11:35:38;16.08;;;7.55;;
50884;SDS011;36865;-33.406;-70.534;2022-07-23T11:38:21;14.68;;;7.15;;
50884;SDS011;36865;-33.406;-70.534;2022-07-23T11:40:49;15.98;;;7.00;;
50884;SDS011;36865;-33.406;-70.534;2022-07-23T11:43:19;15.23;;;7.00;;
50884;SDS011;36865;-33.406;-70.534;2022-07-23T11:45:50;15.25;;;6.50;;
50884;SDS011;36865;-33.406;-70.534;2022-07-23T11:48:22;16.42;;;8.00;;
50884;SDS011;36865;-33.406;-70.534;2022-07-23T11:50:50;16.33;;;7.78;;
50884;SDS011;36865;-33.406;-70.534;2022-07-23T11:53:21;14.43;;;6.63;;
50884;SDS011;36865;-33.406;-70.534;2022-07-23T11:55:49;15.43;;;6.72;;
50884;SDS011;36865;-33.406;-70.534;2022-07-23T11:58:16;13.77;;;6.40;;
50884;SDS011;36865;-33.406;-70.534;2022-07-23T12:00:43;13.88;;;5.75;;
50884;SDS011;36865;-33.406;-70.534;2022-07-23T12:03:10;14.38;;;6.65;;
50884;SDS011;36865;-33.406;-70.534;2022-07-23T12:05:37;12.77;;;5.72;;
50884;SDS011;36865;-33.406;-70.534;2022-07-23T12:08:05;13.88;;;6.05;;
50884;SDS011;36865;-33.406;-70.534;2022-07-23T12:10:37;17.30;;;8.07;;
50884;SDS011;36865;-33.406;-70.534;2022-07-23T12:13:09;17.40;;;8.35;;
50884;SDS011;36865;-33.406;-70.534;2022-07-23T12:15:39;18.35;;;8.60;;
50884;SDS011;36865;-33.406;-70.534;2022-07-23T12:18:11;21.65;;;11.00;;
50884;SDS011;36865;-33.406;-70.534;2022-07-23T12:20:42;19.80;;;9.80;;
50884;SDS011;36865;-33.406;-70.534;2022-07-23T12:23:13;16.90;;;8.07;;
50884;SDS011;36865;-33.406;-70.534;2022-07-23T12:25:42;16.40;;;7.53;;
50884;SDS011;36865;-33.406;-70.534;2022-07-23T12:28:12;15.57;;;7.78;;
50884;SDS011;36865;-33.406;-70.534;2022-07-23T12:30:47;13.40;;;6.28;;
50884;SDS011;36865;-33.406;-70.534;2022-07-23T12:33:21;15.55;;;7.68;;
50884;SDS011;36865;-33.406;-70.534;2022-07-23T12:35:56;14.60;;;6.83;;
50884;SDS011;36865;-33.406;-70.534;2022-07-23T12:38:25;13.43;;;6.43;;
50884;SDS011;36865;-33.406;-70.534;2022-07-23T12:40:56;13.23;;;6.22;;
50884;SDS011;36865;-33.406;-70.534;2022-07-23T12:48:35;17.88;;;8.35;;
50884;SDS011;36865;-33.406;-70.534;2022-07-23T12:51:06;17.33;;;8.43;;
50884;SDS011;36865;-33.406;-70.534;2022-07-23T12:53:47;23.08;;;12.00;;
50884;SDS011;36865;-33.406;-70.534;2022-07-23T12:56:37;30.83;;;17.55;;
50884;SDS011;36865;-33.406;-70.534;2022-07-23T12:59:10;33.40;;;18.75;;
50884;SDS011;36865;-33.406;-70.534;2022-07-23T13:01:41;32.95;;;18.25;;
50884;SDS011;36865;-33.406;-70.534;2022-07-23T13:04:15;30.48;;;17.95;;
50884;SDS011;36865;-33.406;-70.534;2022-07-23T13:09:19;35.55;;;19.92;;
50884;SDS011;36865;-33.406;-70.534;2022-07-23T13:11:49;29.55;;;17.20;;
50884;SDS011;36865;-33.406;-70.534;2022-07-23T13:14:17;32.95;;;18.48;;
50884;SDS011;36865;-33.406;-70.534;2022-07-23T13:16:44;33.33;;;19.08;;
50884;SDS011;36865;-33.406;-70.534;2022-07-23T13:19:11;30.27;;;17.38;;
50884;SDS011;36865;-33.406;-70.534;2022-07-23T13:21:38;32.72;;;17.65;;
50884;SDS011;36865;-33.406;-70.534;2022-07-23T13:24:06;33.20;;;18.20;;
50884;SDS011;36865;-33.406;-70.534;2022-07-23T13:26:36;29.60;;;17.35;;
50884;SDS011;36865;-33.406;-70.534;2022-07-23T13:29:03;29.98;;;16.73;;
50884;SDS011;36865;-33.406;-70.534;2022-07-23T13:31:32;30.70;;;16.48;;
50884;SDS011;36865;-33.406;-70.534;2022-07-23T13:33:59;31.15;;;18.42;;
50884;SDS011;36865;-33.406;-70.534;2022-07-23T13:36:25;28.77;;;16.52;;
50884;SDS011;36865;-33.406;-70.534;2022-07-23T13:38:52;27.23;;;15.70;;
50884;SDS011;36865;-33.406;-70.534;2022-07-23T13:41:18;29.98;;;16.60;;
50884;SDS011;36865;-33.406;-70.534;2022-07-23T13:43:45;24.83;;;14.10;;
50884;SDS011;36865;-33.406;-70.534;2022-07-23T13:46:12;24.67;;;13.65;;
50884;SDS011;36865;-33.406;-70.534;2022-07-23T13:48:38;23.08;;;12.15;;
50884;SDS011;36865;-33.406;-70.534;2022-07-23T13:51:05;23.67;;;12.98;;
50884;SDS011;36865;-33.406;-70.534;2022-07-23T13:53:33;26.48;;;14.75;;
50884;SDS011;36865;-33.406;-70.534;2022-07-23T13:55:59;26.20;;;14.02;;
50884;SDS011;36865;-33.406;-70.534;2022-07-23T13:58:26;24.55;;;13.93;;
50884;SDS011;36865;-33.406;-70.534;2022-07-23T14:00:53;22.23;;;12.55;;
50884;SDS011;36865;-33.406;-70.534;2022-07-23T14:03:20;23.23;;;12.98;;
50884;SDS011;36865;-33.406;-70.534;2022-07-23T14:05:50;24.70;;;13.57;;
50884;SDS011;36865;-33.406;-70.534;2022-07-23T14:08:18;25.05;;;14.57;;
50884;SDS011;36865;-33.406;-70.534;2022-07-23T14:10:44;25.27;;;13.55;;
50884;SDS011;36865;-33.406;-70.534;2022-07-23T14:13:11;27.42;;;14.88;;
50884;SDS011;36865;-33.406;-70.534;2022-07-23T14:15:37;25.90;;;15.60;;
50884;SDS011;36865;-33.406;-70.534;2022-07-23T14:18:05;20.90;;;11.88;;
50884;SDS011;36865;-33.406;-70.534;2022-07-23T14:20:33;20.75;;;11.15;;
50884;SDS011;36865;-33.406;-70.534;2022-07-23T14:22:59;20.15;;;10.68;;
50884;SDS011;36865;-33.406;-70.534;2022-07-23T14:25:27;20.75;;;10.77;;
50884;SDS011;36865;-33.406;-70.534;2022-07-23T14:27:54;22.80;;;12.65;;
50884;SDS011;36865;-33.406;-70.534;2022-07-23T14:30:20;17.92;;;10.25;;
50884;SDS011;36865;-33.406;-70.534;2022-07-23T14:32:49;20.48;;;11.55;;
50884;SDS011;36865;-33.406;-70.534;2022-07-23T14:35:16;15.60;;;8.13;;
50884;SDS011;36865;-33.406;-70.534;2022-07-23T14:37:44;15.70;;;8.07;;
50884;SDS011;36865;-33.406;-70.534;2022-07-23T14:40:10;16.50;;;8.45;;
50884;SDS011;36865;-33.406;-70.534;2022-07-23T14:42:37;18.50;;;10.05;;
50884;SDS011;36865;-33.406;-70.534;2022-07-23T14:45:04;17.02;;;8.40;;